METAR Formatted Surface Weather Observation
Issued by NWS

Home | Current Version | Previous Version | Text Only | Print | Product List | Glossary On
Versions: 1 2 3 4 5 6 7
689
SAUS41 KGYX 240855
MTRNKT
METAR KNKT 240854Z AUTO 03008KT 10SM OVC005 17/16 A2985 RMK AO2
RAE32 SLP105 P0001 60003 T01720156 56014



USA.gov is the U.S. government's official web portal to all federal, state and local government web resources and services.